createdAt,value
2023-02-24T00:01:14.075Z,9.88
2023-02-24T00:03:40.401Z,10.49
2023-02-24T00:06:06.698Z,10.08
2023-02-24T00:08:32.994Z,10.10
2023-02-24T00:10:59.281Z,10.03
2023-02-24T00:13:25.562Z,10.76
2023-02-24T00:15:51.884Z,9.96
2023-02-24T00:18:18.156Z,10.16
2023-02-24T00:20:44.439Z,10.82
2023-02-24T00:23:10.745Z,11.01
2023-02-24T00:25:37.023Z,11.80
2023-02-24T00:28:03.309Z,11.74
2023-02-24T00:30:29.625Z,10.37
2023-02-24T00:32:55.999Z,10.61
2023-02-24T00:35:22.327Z,10.44
2023-02-24T00:37:48.627Z,10.81
2023-02-24T00:40:14.906Z,11.66
2023-02-24T00:42:41.189Z,11.43
2023-02-24T00:45:07.494Z,12.40
2023-02-24T00:47:33.776Z,13.04
2023-02-24T00:50:00.098Z,13.37
2023-02-24T00:52:26.405Z,14.77
2023-02-24T00:54:52.705Z,16.47
2023-02-24T00:57:19.002Z,18.42
2023-02-24T00:59:45.313Z,16.77
2023-02-24T01:02:11.626Z,14.14
2023-02-24T01:04:37.980Z,12.15
2023-02-24T01:07:04.294Z,12.72
2023-02-24T01:09:30.610Z,11.89
2023-02-24T01:11:57.030Z,11.95
2023-02-24T01:14:23.362Z,11.01
2023-02-24T01:16:49.649Z,11.09
2023-02-24T01:19:15.927Z,11.18
2023-02-24T01:21:42.269Z,10.98
2023-02-24T01:24:08.557Z,11.21
2023-02-24T01:26:34.844Z,10.90
2023-02-24T01:29:01.140Z,11.24
2023-02-24T01:31:27.499Z,11.39
2023-02-24T01:33:53.821Z,11.30
2023-02-24T01:36:20.134Z,10.86
2023-02-24T01:38:46.501Z,11.02
2023-02-24T01:41:12.785Z,11.00
2023-02-24T01:43:39.080Z,11.41
2023-02-24T01:46:05.360Z,11.16
2023-02-24T01:48:31.653Z,10.83
2023-02-24T01:50:57.953Z,10.78
2023-02-24T01:53:24.251Z,11.18
2023-02-24T01:55:50.553Z,10.78
2023-02-24T01:58:16.893Z,10.69
2023-02-24T02:00:43.176Z,10.97
2023-02-24T02:03:09.468Z,11.42
2023-02-24T02:05:35.772Z,11.50
2023-02-24T02:08:02.204Z,12.03
2023-02-24T02:10:28.557Z,11.72
2023-02-24T02:12:54.889Z,12.45
2023-02-24T02:15:21.168Z,11.89
2023-02-24T02:17:47.463Z,11.00
2023-02-24T02:20:13.793Z,10.68
2023-02-24T02:22:40.075Z,10.09
2023-02-24T02:38:29.325Z,11.39
2023-02-24T02:40:55.621Z,12.01
2023-02-24T02:43:21.911Z,11.38
2023-02-24T02:45:48.272Z,11.13
2023-02-24T02:48:14.604Z,11.56
2023-02-24T02:50:40.873Z,11.21
2023-02-24T02:53:07.186Z,11.26
2023-02-24T02:55:33.478Z,10.87
2023-02-24T02:57:59.778Z,10.55
2023-02-24T03:00:26.105Z,11.21
2023-02-24T03:02:52.401Z,11.21
2023-02-24T03:05:18.698Z,11.72
2023-02-24T03:07:45.135Z,11.61
2023-02-24T03:10:11.439Z,11.97
2023-02-24T03:12:37.721Z,12.37
2023-02-24T03:15:04.029Z,12.25
2023-02-24T03:17:30.315Z,12.31
2023-02-24T03:19:56.600Z,11.97
2023-02-24T03:22:23.131Z,11.66
2023-02-24T03:24:49.447Z,11.58
2023-02-24T03:27:15.717Z,11.80
2023-02-24T03:29:42.023Z,12.12
2023-02-24T03:32:08.461Z,12.02
2023-02-24T03:34:34.838Z,12.04
2023-02-24T03:37:01.173Z,12.04
2023-02-24T03:39:27.457Z,11.40
2023-02-24T03:41:53.731Z,11.60
2023-02-24T03:44:20.039Z,12.20
2023-02-24T03:46:46.325Z,12.10
2023-02-24T03:49:12.598Z,11.78
2023-02-24T03:51:38.895Z,12.34
2023-02-24T03:54:05.180Z,12.11
2023-02-24T03:56:31.477Z,12.37
2023-02-24T03:58:57.781Z,11.86
2023-02-24T04:01:24.062Z,12.73
2023-02-24T04:03:50.351Z,12.06
2023-02-24T04:06:16.651Z,11.46
2023-02-24T04:08:43.043Z,11.89
2023-02-24T04:11:09.316Z,11.74
2023-02-24T04:13:35.612Z,12.15
2023-02-24T04:16:01.971Z,12.39
2023-02-24T04:18:28.400Z,12.16
2023-02-24T04:20:54.699Z,12.06
2023-02-24T04:23:20.990Z,12.82
2023-02-24T04:25:47.280Z,14.34
2023-02-24T04:28:13.602Z,15.09
2023-02-24T04:30:39.948Z,15.00
2023-02-24T04:33:06.292Z,14.43
2023-02-24T04:35:32.598Z,13.34
2023-02-24T04:37:58.884Z,13.65
2023-02-24T04:40:25.188Z,13.46
2023-02-24T04:42:51.529Z,14.84
2023-02-24T04:45:19.007Z,13.42
2023-02-24T04:47:45.296Z,12.27
2023-02-24T04:50:11.596Z,13.01
2023-02-24T04:52:37.875Z,12.77
2023-02-24T04:55:04.167Z,12.98
2023-02-24T04:57:30.465Z,14.30
2023-02-24T04:59:56.769Z,14.49
2023-02-24T05:02:23.051Z,13.20
2023-02-24T05:04:49.394Z,13.31
2023-02-24T05:07:15.713Z,13.29
2023-02-24T05:09:42.000Z,13.01
2023-02-24T05:12:08.301Z,13.21
2023-02-24T05:14:34.592Z,13.67
2023-02-24T05:17:00.884Z,13.76
2023-02-24T05:19:27.203Z,13.74
2023-02-24T05:21:53.482Z,13.37
2023-02-24T05:24:19.774Z,13.73
2023-02-24T05:26:46.084Z,13.99
2023-02-24T05:29:12.395Z,14.11
2023-02-24T05:31:38.855Z,13.65
2023-02-24T05:34:05.230Z,13.99
2023-02-24T05:36:31.528Z,16.57
2023-02-24T05:38:57.835Z,17.38
2023-02-24T05:41:24.137Z,16.64
2023-02-24T05:43:50.426Z,15.75
2023-02-24T05:46:16.774Z,15.17
2023-02-24T05:48:43.134Z,13.48
2023-02-24T05:51:09.408Z,11.88
2023-02-24T05:53:35.690Z,10.30
2023-02-24T05:56:01.986Z,10.67
2023-02-24T05:58:28.262Z,10.75
2023-02-24T06:00:54.550Z,10.88
2023-02-24T06:03:20.876Z,10.52
2023-02-24T06:05:47.172Z,11.82
2023-02-24T06:08:13.457Z,11.57
2023-02-24T06:10:39.831Z,11.80
2023-02-24T06:13:06.115Z,11.26
2023-02-24T06:15:32.392Z,10.77
2023-02-24T06:17:58.709Z,10.86
2023-02-24T06:20:24.997Z,11.83
2023-02-24T06:22:51.271Z,11.32
2023-02-24T06:25:17.582Z,11.86
2023-02-24T06:27:44.091Z,12.10
2023-02-24T06:30:10.579Z,13.57
2023-02-24T06:32:37.075Z,15.45
2023-02-24T06:35:03.447Z,16.19
2023-02-24T06:37:29.741Z,15.82
2023-02-24T06:39:56.052Z,14.94
2023-02-24T06:42:22.349Z,15.05
2023-02-24T06:44:48.728Z,16.24
2023-02-24T06:47:15.062Z,16.44
2023-02-24T06:49:41.343Z,15.67
2023-02-24T06:52:07.634Z,14.61
2023-02-24T06:54:33.983Z,16.33
2023-02-24T06:57:00.290Z,17.64
2023-02-24T06:59:26.576Z,17.52
2023-02-24T07:01:52.877Z,17.42
2023-02-24T07:04:22.292Z,17.19
2023-02-24T07:06:48.618Z,17.30
2023-02-24T07:09:14.918Z,16.66
2023-02-24T07:11:41.202Z,16.14
2023-02-24T07:14:07.492Z,18.28
2023-02-24T07:16:33.848Z,19.02
2023-02-24T07:19:00.158Z,20.75
2023-02-24T07:21:26.487Z,20.30
2023-02-24T07:23:52.812Z,20.39
2023-02-24T07:26:19.105Z,19.97
2023-02-24T07:28:45.392Z,20.09
2023-02-24T07:31:11.804Z,19.98
2023-02-24T07:33:38.272Z,19.75
2023-02-24T07:36:04.563Z,19.80
2023-02-24T07:38:30.874Z,20.15
2023-02-24T07:40:57.171Z,19.57
2023-02-24T07:43:23.558Z,20.47
2023-02-24T07:45:49.901Z,19.96
2023-02-24T07:48:16.224Z,20.20
2023-02-24T07:50:42.515Z,19.79
2023-02-24T07:53:08.849Z,21.16
2023-02-24T07:55:35.134Z,20.91
2023-02-24T07:58:01.530Z,20.90
2023-02-24T08:00:27.925Z,22.77
2023-02-24T08:02:54.290Z,27.05
2023-02-24T08:05:20.669Z,27.06
2023-02-24T08:07:47.014Z,25.57
2023-02-24T08:10:13.303Z,25.81
2023-02-24T08:12:39.613Z,25.71
2023-02-24T08:15:05.916Z,24.90
2023-02-24T08:17:32.233Z,25.04
2023-02-24T08:19:58.528Z,24.45
2023-02-24T08:22:24.833Z,22.95
2023-02-24T08:24:51.129Z,22.57
2023-02-24T08:27:17.444Z,22.49
2023-02-24T08:29:43.755Z,22.26
2023-02-24T08:32:10.172Z,21.48
2023-02-24T08:34:36.553Z,20.77
2023-02-24T08:37:02.883Z,21.24
2023-02-24T08:39:29.190Z,21.05
2023-02-24T08:41:55.477Z,21.64
2023-02-24T08:44:21.787Z,23.88
2023-02-24T08:46:48.112Z,23.01
2023-02-24T08:49:14.443Z,24.35
2023-02-24T08:51:40.766Z,24.54
2023-02-24T08:54:07.055Z,23.81
2023-02-24T08:56:33.336Z,21.43
2023-02-24T08:58:59.720Z,21.59
2023-02-24T09:01:26.170Z,20.90
2023-02-24T09:03:52.563Z,20.31
2023-02-24T09:06:18.933Z,21.27
2023-02-24T09:08:45.234Z,20.42
2023-02-24T09:11:11.605Z,19.68
2023-02-24T09:13:37.917Z,19.89
2023-02-24T09:16:04.212Z,19.76
2023-02-24T09:18:30.564Z,20.65
2023-02-24T09:20:56.896Z,19.99
2023-02-24T09:23:23.187Z,21.13
2023-02-24T09:25:49.564Z,19.87
2023-02-24T09:28:16.020Z,20.19
2023-02-24T09:30:42.454Z,20.67
2023-02-24T09:33:08.935Z,20.53
2023-02-24T09:35:35.339Z,21.39
2023-02-24T09:38:01.656Z,20.59
2023-02-24T09:40:27.986Z,19.60
2023-02-24T09:42:54.326Z,17.71
2023-02-24T09:45:20.666Z,16.94
2023-02-24T09:47:46.981Z,16.39
2023-02-24T09:50:13.298Z,19.30
2023-02-24T09:52:39.690Z,19.21
2023-02-24T09:55:06.112Z,19.47
2023-02-24T09:57:32.466Z,19.06
2023-02-24T09:59:58.845Z,18.46
2023-02-24T10:02:25.136Z,18.61
2023-02-24T10:04:51.461Z,19.21
2023-02-24T10:07:17.813Z,19.04
2023-02-24T10:09:44.092Z,19.32
2023-02-24T10:12:10.454Z,19.35
2023-02-24T10:14:42.906Z,20.83
2023-02-24T10:17:10.205Z,21.84
2023-02-24T10:19:36.503Z,21.82
2023-02-24T10:22:02.853Z,20.38
2023-02-24T10:24:29.244Z,20.48
2023-02-24T10:27:07.451Z,20.90
2023-02-24T10:29:34.408Z,20.25
2023-02-24T10:32:00.829Z,20.49
2023-02-24T10:34:27.263Z,20.19
2023-02-24T10:36:53.584Z,21.06
2023-02-24T10:39:19.874Z,20.40
2023-02-24T10:41:46.185Z,21.74
2023-02-24T10:44:12.537Z,21.83
2023-02-24T10:46:41.949Z,21.98
2023-02-24T10:49:08.838Z,21.17
2023-02-24T10:51:35.154Z,21.80
2023-02-24T10:54:01.485Z,22.01
2023-02-24T10:56:27.783Z,21.66
2023-02-24T10:58:54.098Z,21.60
2023-02-24T11:01:20.740Z,22.21
2023-02-24T11:03:47.194Z,21.44
2023-02-24T11:06:13.494Z,21.85
2023-02-24T11:08:39.881Z,21.26
2023-02-24T11:11:06.254Z,21.86
2023-02-24T11:13:32.616Z,21.66
2023-02-24T11:16:00.193Z,21.55
2023-02-24T11:18:26.500Z,21.64
2023-02-24T11:20:52.825Z,21.65
2023-02-24T11:23:19.125Z,21.34
2023-02-24T11:25:45.424Z,21.12
2023-02-24T11:28:11.737Z,21.07
2023-02-24T11:30:38.056Z,21.45
2023-02-24T11:33:04.369Z,22.25
2023-02-24T11:35:30.679Z,21.52
2023-02-24T11:37:56.977Z,21.84
2023-02-24T11:40:23.282Z,21.96
2023-02-24T11:42:49.599Z,22.09
2023-02-24T11:45:15.896Z,21.44
2023-02-24T11:47:42.207Z,21.78
2023-02-24T11:50:08.510Z,20.95
2023-02-24T11:52:34.799Z,21.43
2023-02-24T11:55:01.097Z,21.77
2023-02-24T11:57:27.416Z,21.85
2023-02-24T11:59:53.730Z,21.45
2023-02-24T12:02:20.031Z,21.49
2023-02-24T12:04:46.366Z,20.70
2023-02-24T12:07:12.651Z,21.04
2023-02-24T12:09:38.940Z,21.62
2023-02-24T12:12:05.256Z,21.42
2023-02-24T12:14:31.564Z,20.86
2023-02-24T12:16:58.123Z,20.67
2023-02-24T12:19:24.503Z,20.70
2023-02-24T12:21:50.802Z,21.14
2023-02-24T12:24:17.093Z,21.08
2023-02-24T12:26:43.426Z,20.71
2023-02-24T12:29:09.747Z,20.42
2023-02-24T12:31:36.099Z,20.30
2023-02-24T12:34:02.439Z,20.26
2023-02-24T12:36:30.853Z,19.89
2023-02-24T12:38:57.300Z,20.86
2023-02-24T12:41:23.873Z,19.46
2023-02-24T12:43:50.256Z,18.18
2023-02-24T12:46:16.584Z,17.62
2023-02-24T12:48:42.937Z,16.40
2023-02-24T12:51:09.249Z,16.29
2023-02-24T12:53:35.548Z,15.43
2023-02-24T12:56:02.053Z,15.39
2023-02-24T12:58:28.513Z,17.19
2023-02-24T13:00:54.870Z,16.95
2023-02-24T13:03:21.269Z,19.28
2023-02-24T13:05:47.596Z,19.74
2023-02-24T13:08:13.884Z,19.64
2023-02-24T13:10:40.249Z,19.96
2023-02-24T13:13:06.543Z,18.60
2023-02-24T13:15:32.843Z,18.88
2023-02-24T13:17:59.193Z,18.89
2023-02-24T13:20:25.473Z,18.77
2023-02-24T13:22:51.780Z,15.34
2023-02-24T13:25:18.114Z,16.06
2023-02-24T13:27:44.429Z,16.43
2023-02-24T13:30:10.771Z,15.07
2023-02-24T13:32:37.223Z,16.26
2023-02-24T13:35:03.610Z,17.76
2023-02-24T13:37:29.917Z,17.98
2023-02-24T13:39:56.242Z,20.03
2023-02-24T13:42:22.533Z,20.23
2023-02-24T13:44:48.823Z,20.44
2023-02-24T13:47:15.130Z,20.33
2023-02-24T13:49:41.429Z,20.13
2023-02-24T13:52:07.711Z,18.88
2023-02-24T13:54:34.035Z,17.99
2023-02-24T13:57:00.344Z,18.48
2023-02-24T13:59:26.642Z,16.66
2023-02-24T14:01:53.058Z,16.90
2023-02-24T14:04:19.377Z,15.95
2023-02-24T14:06:45.674Z,16.34
2023-02-24T14:09:12.078Z,16.50
2023-02-24T14:11:38.395Z,15.27
2023-02-24T14:14:04.695Z,15.06
2023-02-24T14:16:31.085Z,14.57
2023-02-24T14:18:57.393Z,14.22
2023-02-24T14:21:23.693Z,13.75
2023-02-24T14:23:50.016Z,13.90
2023-02-24T14:26:16.334Z,13.88
2023-02-24T14:28:42.638Z,14.23
2023-02-24T14:31:09.069Z,14.21
2023-02-24T14:33:35.478Z,14.61
2023-02-24T14:36:01.788Z,14.11
2023-02-24T14:38:28.143Z,13.98
2023-02-24T14:40:54.432Z,13.62
2023-02-24T14:43:20.785Z,13.47
2023-02-24T14:45:47.097Z,13.18
2023-02-24T14:48:13.398Z,13.99
2023-02-24T14:50:39.701Z,13.52
2023-02-24T14:53:06.024Z,14.31
2023-02-24T14:55:32.509Z,13.41
2023-02-24T14:57:58.919Z,14.10
2023-02-24T15:00:25.235Z,14.46
2023-02-24T15:02:51.601Z,13.79
2023-02-24T15:05:17.944Z,13.65
2023-02-24T15:07:44.365Z,13.92
2023-02-24T15:10:10.671Z,13.55
2023-02-24T15:12:36.965Z,12.82
2023-02-24T15:15:03.434Z,13.62
2023-02-24T15:17:29.725Z,13.57
2023-02-24T15:19:56.012Z,13.34
2023-02-24T15:22:22.325Z,12.98
2023-02-24T15:24:48.622Z,12.72
2023-02-24T15:27:15.095Z,12.77
2023-02-24T15:29:41.443Z,13.31
2023-02-24T15:32:07.848Z,13.18
2023-02-24T15:34:34.604Z,12.89
2023-02-24T15:37:01.033Z,12.69
2023-02-24T15:39:27.328Z,12.75
2023-02-24T15:41:53.613Z,12.57
2023-02-24T15:44:19.931Z,12.21
2023-02-24T15:46:46.268Z,12.49
2023-02-24T15:49:12.566Z,12.47
2023-02-24T15:51:38.889Z,12.95
2023-02-24T15:54:05.200Z,13.09
2023-02-24T15:56:31.512Z,13.74
2023-02-24T15:58:57.820Z,13.22
2023-02-24T16:01:24.117Z,13.00
2023-02-24T16:03:50.459Z,13.68
2023-02-24T16:06:16.761Z,12.89
2023-02-24T16:08:43.050Z,12.84
2023-02-24T16:11:09.337Z,12.75
2023-02-24T16:13:35.655Z,12.87
2023-02-24T16:16:02.034Z,12.29
2023-02-24T16:18:28.355Z,12.43
2023-02-24T16:20:54.937Z,12.72
2023-02-24T16:23:21.305Z,12.26
2023-02-24T16:25:47.600Z,11.86
2023-02-24T16:28:13.912Z,11.75
2023-02-24T16:30:40.357Z,10.94
2023-02-24T16:33:06.923Z,10.74
2023-02-24T16:35:33.302Z,11.01
2023-02-24T16:37:59.580Z,11.47
2023-02-24T16:40:25.867Z,12.42
2023-02-24T16:42:52.229Z,13.75
2023-02-24T16:45:18.745Z,15.12
2023-02-24T16:47:45.092Z,14.66
2023-02-24T16:50:11.410Z,13.30
2023-02-24T16:52:37.718Z,13.36
2023-02-24T16:55:04.003Z,12.48
2023-02-24T16:57:30.310Z,13.07
2023-02-24T16:59:56.618Z,13.00
2023-02-24T17:02:22.917Z,12.71
2023-02-24T17:04:49.216Z,10.42
2023-02-24T17:07:15.502Z,8.65
2023-02-24T17:09:41.778Z,7.96
2023-02-24T17:12:08.088Z,8.15
2023-02-24T17:14:34.366Z,8.96
2023-02-24T17:17:00.750Z,9.15
2023-02-24T17:19:27.161Z,10.01
2023-02-24T17:21:53.453Z,9.91
2023-02-24T17:24:19.749Z,8.10
2023-02-24T17:26:46.076Z,7.11
2023-02-24T17:29:12.362Z,6.99
2023-02-24T17:31:38.987Z,6.69
2023-02-24T17:34:06.419Z,6.72
2023-02-24T17:36:32.750Z,5.62
2023-02-24T17:38:59.054Z,5.90
2023-02-24T17:41:25.485Z,6.17
2023-02-24T17:43:51.870Z,5.37
2023-02-24T17:46:18.216Z,4.17
2023-02-24T17:48:44.563Z,4.24
2023-02-24T17:51:10.839Z,4.24
2023-02-24T17:53:37.122Z,3.96
2023-02-24T17:56:03.592Z,3.63
2023-02-24T17:58:29.933Z,3.38
2023-02-24T18:00:56.242Z,3.32
2023-02-24T18:03:22.648Z,4.04
2023-02-24T18:05:48.964Z,4.38
2023-02-24T18:08:15.241Z,4.53
2023-02-24T18:10:41.533Z,5.50
2023-02-24T18:13:07.819Z,5.51
2023-02-24T18:15:34.098Z,6.52
2023-02-24T18:18:00.395Z,6.76
2023-02-24T18:20:26.723Z,6.87
2023-02-24T18:22:53.006Z,5.84
2023-02-24T18:25:19.317Z,6.05
2023-02-24T18:27:45.617Z,6.68
2023-02-24T18:30:11.913Z,5.96
2023-02-24T18:32:38.327Z,5.24
2023-02-24T18:35:04.655Z,5.01
2023-02-24T18:37:30.941Z,4.49
2023-02-24T18:39:57.236Z,4.78
2023-02-24T18:42:23.535Z,4.43
2023-02-24T18:44:49.808Z,3.80
2023-02-24T18:47:16.154Z,3.97
2023-02-24T18:49:42.425Z,4.43
2023-02-24T18:52:08.730Z,4.65
2023-02-24T18:54:35.120Z,4.93
2023-02-24T18:57:01.400Z,4.57
2023-02-24T18:59:27.693Z,5.80
2023-02-24T19:01:54.048Z,8.24
2023-02-24T19:04:20.358Z,9.65
2023-02-24T19:06:46.642Z,9.82
2023-02-24T19:09:12.966Z,10.75
2023-02-24T19:11:39.245Z,11.02
2023-02-24T19:14:05.553Z,11.20
2023-02-24T19:16:31.939Z,11.15
2023-02-24T19:18:58.251Z,11.58
2023-02-24T19:21:24.546Z,11.53
2023-02-24T19:23:50.853Z,10.98
2023-02-24T19:26:17.138Z,11.16
2023-02-24T19:28:43.427Z,11.68
2023-02-24T19:31:09.812Z,11.25
2023-02-24T19:33:36.215Z,12.40
2023-02-24T19:36:02.542Z,12.80
2023-02-24T19:38:28.850Z,12.47
2023-02-24T19:40:55.138Z,12.23
2023-02-24T19:43:21.426Z,12.21
2023-02-24T19:45:47.761Z,9.70
2023-02-24T19:48:14.054Z,4.61
2023-02-24T19:50:40.345Z,2.64
2023-02-24T19:53:06.641Z,2.60
2023-02-24T19:55:32.920Z,1.65
2023-02-24T19:57:59.207Z,1.48
2023-02-24T20:00:25.566Z,1.38
2023-02-24T20:02:51.855Z,1.56
2023-02-24T20:05:18.138Z,2.59
2023-02-24T20:07:44.457Z,3.88
2023-02-24T20:10:10.752Z,4.37
2023-02-24T20:12:37.069Z,4.72
2023-02-24T20:15:03.389Z,4.47
2023-02-24T20:17:29.661Z,5.07
2023-02-24T20:19:55.949Z,5.05
2023-02-24T20:22:22.253Z,4.50
2023-02-24T20:24:48.537Z,3.78
2023-02-24T20:27:14.824Z,3.43
2023-02-24T20:29:41.128Z,2.89
2023-02-24T20:32:07.513Z,2.46
2023-02-24T20:34:33.895Z,2.33
2023-02-24T20:37:00.202Z,2.17
2023-02-24T20:39:26.488Z,2.30
2023-02-24T20:41:52.825Z,2.21
2023-02-24T20:44:19.126Z,2.07
2023-02-24T20:46:45.408Z,2.83
2023-02-24T20:49:11.723Z,2.27
2023-02-24T20:51:38.046Z,2.10
2023-02-24T20:54:04.331Z,2.20
2023-02-24T20:56:30.624Z,1.83
2023-02-24T20:58:56.944Z,1.90
2023-02-24T21:01:23.274Z,2.05
2023-02-24T21:03:49.601Z,2.39
2023-02-24T21:06:15.952Z,2.45
2023-02-24T21:08:42.334Z,2.56
2023-02-24T21:11:10.977Z,2.54
2023-02-24T21:13:37.459Z,2.41
2023-02-24T21:16:03.783Z,2.63
2023-02-24T21:18:30.233Z,2.87
2023-02-24T21:20:56.552Z,3.20
2023-02-24T21:23:22.833Z,2.96
2023-02-24T21:25:49.116Z,2.85
2023-02-24T21:28:15.411Z,2.70
2023-02-24T21:30:41.767Z,3.01
2023-02-24T21:33:08.068Z,3.05
2023-02-24T21:35:34.370Z,2.97
2023-02-24T21:38:00.747Z,2.73
2023-02-24T21:40:27.047Z,2.61
2023-02-24T21:42:53.354Z,2.77
2023-02-24T21:45:20.839Z,2.45
2023-02-24T21:47:47.139Z,2.52
2023-02-24T21:50:13.443Z,3.00
2023-02-24T21:52:39.722Z,3.08
2023-02-24T21:55:06.011Z,2.96
2023-02-24T21:57:32.320Z,2.86
2023-02-24T21:59:58.602Z,2.85
2023-02-24T22:02:24.876Z,2.97
2023-02-24T22:04:52.261Z,3.07
2023-02-24T22:07:18.544Z,3.24
2023-02-24T22:09:44.831Z,2.91
2023-02-24T22:12:11.167Z,3.02
2023-02-24T22:14:37.444Z,3.07
2023-02-24T22:17:03.732Z,3.24
2023-02-24T22:19:30.037Z,3.27
2023-02-24T22:21:56.325Z,3.52
2023-02-24T22:24:22.600Z,3.50
2023-02-24T22:26:48.912Z,3.46
2023-02-24T22:29:15.197Z,3.93
2023-02-24T22:31:41.603Z,3.72
2023-02-24T22:34:07.953Z,3.67
2023-02-24T22:36:34.238Z,3.70
2023-02-24T22:39:00.515Z,3.65
2023-02-24T22:41:26.837Z,3.19
2023-02-24T22:43:53.112Z,3.69
2023-02-24T22:46:19.471Z,3.89
2023-02-24T22:48:45.784Z,3.63
2023-02-24T22:51:12.076Z,3.49
2023-02-24T22:53:38.363Z,3.36
2023-02-24T22:56:04.658Z,3.68
2023-02-24T22:58:30.933Z,3.69
2023-02-24T23:00:57.217Z,3.49
2023-02-24T23:03:23.682Z,3.60
2023-02-24T23:05:49.989Z,3.66
2023-02-24T23:08:16.273Z,3.98
2023-02-24T23:10:42.576Z,5.34
2023-02-24T23:13:08.862Z,3.44
2023-02-24T23:15:35.179Z,3.27
2023-02-24T23:18:01.535Z,4.09
2023-02-24T23:20:27.817Z,3.79
2023-02-24T23:22:54.114Z,3.13
2023-02-24T23:25:20.416Z,2.79
2023-02-24T23:27:46.711Z,2.41
2023-02-24T23:30:12.987Z,2.88
2023-02-24T23:32:40.579Z,2.55
2023-02-24T23:35:06.892Z,3.13
2023-02-24T23:37:33.177Z,3.34
2023-02-24T23:39:59.459Z,3.27
2023-02-24T23:42:25.731Z,3.29
2023-02-24T23:44:52.028Z,3.24
2023-02-24T23:47:18.364Z,3.32
2023-02-24T23:49:48.372Z,3.45
2023-02-24T23:52:14.973Z,3.20
2023-02-24T23:54:41.282Z,3.29
2023-02-24T23:57:07.703Z,3.32
2023-02-24T23:59:34.029Z,3.14
